Time;durP1;ratioP1;P1;durP2;ratioP2;P2;SDS_P1;SDS_P2;PMS_P1;PMS_P2;Temp;Humidity;BMP_temperature;BMP_pressure;BME280_temperature;BME280_humidity;BME280_pressure;Samples;Min_cycle;Max_cycle;Signal;HPM_P1;HPM_P2
2023/10/17 00:00:28;;;;;;;5.67;4.27;;;;;;;2.70;100.00;98389.34;5076114;28;20215;-81
2023/10/17 00:02:54;;;;;;;5.93;3.87;;;;;;;2.58;100.00;98387.16;5075548;28;20212;-81
2023/10/17 00:05:23;;;;;;;6.23;4.00;;;;;;;2.48;100.00;98380.56;5075553;28;20731;-81
2023/10/17 00:07:49;;;;;;;4.90;3.97;;;;;;;2.34;100.00;98380.13;5076065;28;20207;-81
2023/10/17 00:10:18;;;;;;;4.43;3.47;;;;;;;2.23;100.00;98378.78;5075770;28;20218;-81
2023/10/17 00:12:46;;;;;;;4.30;3.67;;;;;;;2.13;100.00;98367.81;5074452;28;20334;-81
2023/10/17 00:15:20;;;;;;;7.23;4.00;;;;;;;1.99;100.00;98359.59;5076069;28;20210;-81
2023/10/17 00:17:47;;;;;;;5.63;3.67;;;;;;;1.89;100.00;98357.34;5075689;28;20213;-81
2023/10/17 00:20:17;;;;;;;5.40;3.87;;;;;;;1.81;100.00;98348.88;5075353;28;20381;-81
2023/10/17 00:22:44;;;;;;;5.80;3.87;;;;;;;1.77;100.00;98345.50;5074969;28;20230;-81
2023/10/17 00:25:11;;;;;;;6.13;3.90;;;;;;;1.70;100.00;98346.63;5076784;28;20570;-81
2023/10/17 00:27:39;;;;;;;6.47;4.40;;;;;;;1.68;100.00;98332.78;5077749;28;20218;-81
2023/10/17 00:30:16;;;;;;;5.03;3.87;;;;;;;1.70;100.00;98324.91;5076373;28;20206;-81
2023/10/17 00:32:43;;;;;;;4.87;3.23;;;;;;;1.74;100.00;98322.19;5074859;28;20256;-81
2023/10/17 00:35:13;;;;;;;5.53;4.00;;;;;;;1.74;100.00;98316.09;5075147;28;20210;-81
2023/10/17 00:37:40;;;;;;;5.73;4.20;;;;;;;1.72;100.00;98315.31;5075008;28;20211;-81
2023/10/17 00:40:34;;;;;;;4.77;3.53;;;;;;;1.73;100.00;98320.44;5075167;28;20218;-81
2023/10/17 00:42:56;;;;;;;5.97;4.27;;;;;;;1.71;100.00;98322.25;5073575;28;20222;-81
2023/10/17 00:45:23;;;;;;;5.00;3.63;;;;;;;1.68;100.00;98306.75;5074307;28;20659;-81
2023/10/17 00:47:50;;;;;;;5.33;4.10;;;;;;;1.67;100.00;98318.03;5073776;28;20571;-81
2023/10/17 00:50:19;;;;;;;6.70;4.10;;;;;;;1.62;100.00;98317.34;5074075;28;20289;-81
2023/10/17 00:52:46;;;;;;;5.93;4.03;;;;;;;1.62;100.00;98306.06;5073788;28;20246;-81
2023/10/17 00:55:13;;;;;;;5.13;3.80;;;;;;;1.65;100.00;98296.41;5074077;28;20218;-80
2023/10/17 00:57:40;;;;;;;4.80;4.17;;;;;;;1.67;100.00;98294.59;5074129;28;20225;-81
2023/10/17 01:00:22;;;;;;;5.00;3.90;;;;;;;1.65;100.00;98306.00;5073720;28;20214;-81
2023/10/17 01:02:51;;;;;;;6.13;4.10;;;;;;;1.62;100.00;98309.53;5073371;28;20265;-81
2023/10/17 01:05:18;;;;;;;5.23;3.90;;;;;;;1.61;100.00;98302.59;5073644;28;20217;-81
2023/10/17 01:07:45;;;;;;;6.07;4.07;;;;;;;1.61;100.00;98293.94;5073515;28;20614;-81
2023/10/17 01:10:13;;;;;;;7.47;4.23;;;;;;;1.64;100.00;98299.91;5073504;28;20224;-81
2023/10/17 01:12:49;;;;;;;5.83;4.00;;;;;;;1.61;100.00;98294.78;5072876;28;20242;-80
2023/10/17 01:15:20;;;;;;;5.93;3.80;;;;;;;1.61;100.00;98304.38;5073655;28;20209;-81
2023/10/17 01:17:47;;;;;;;7.50;4.00;;;;;;;1.62;100.00;98303.47;5073418;28;20203;-81
2023/10/17 01:20:19;;;;;;;5.77;4.10;;;;;;;1.54;100.00;98303.69;5073577;28;20239;-81
2023/10/17 01:22:45;;;;;;;5.57;4.17;;;;;;;1.52;100.00;98305.50;5073142;28;20288;-81
2023/10/17 01:25:21;;;;;;;5.63;4.03;;;;;;;1.51;100.00;98297.72;5073825;28;20204;-81
2023/10/17 01:27:48;;;;;;;6.53;4.30;;;;;;;1.50;100.00;98296.03;5073681;28;20302;-81
2023/10/17 01:30:16;;;;;;;5.77;4.20;;;;;;;1.51;100.00;98296.00;5073251;28;20215;-81
2023/10/17 01:32:44;;;;;;;6.13;4.10;;;;;;;1.49;100.00;98300.41;5072682;28;20339;-81
2023/10/17 01:35:11;;;;;;;6.07;4.03;;;;;;;1.46;100.00;98295.28;5073652;28;20712;-81
2023/10/17 01:37:38;;;;;;;6.33;4.17;;;;;;;1.40;100.00;98295.47;5073460;28;20204;-81
2023/10/17 01:40:09;;;;;;;4.80;3.90;;;;;;;1.40;100.00;98305.88;5073533;28;20211;-81
2023/10/17 01:42:38;;;;;;;7.07;4.30;;;;;;;1.39;100.00;98293.75;5072450;28;20289;-81
2023/10/17 01:45:10;;;;;;;5.33;3.57;;;;;;;1.39;100.00;98288.56;5073400;28;20227;-81
2023/10/17 01:47:38;;;;;;;4.57;3.50;;;;;;;1.38;100.00;98284.25;5073875;28;20213;-81
2023/10/17 01:50:07;;;;;;;6.30;4.20;;;;;;;1.45;100.00;98288.38;5073405;28;20215;-81
2023/10/17 01:52:35;;;;;;;5.53;3.90;;;;;;;1.41;100.00;98284.13;5072772;28;20249;-81
2023/10/17 01:55:08;;;;;;;5.47;3.97;;;;;;;1.39;100.00;98285.09;5073642;28;20238;-81
2023/10/17 01:57:40;;;;;;;5.43;3.90;;;;;;;1.41;100.00;98288.50;5073915;28;20249;-81
2023/10/17 02:00:11;;;;;;;4.53;3.87;;;;;;;1.36;100.00;98299.03;5073350;28;20210;-81
2023/10/17 02:02:42;;;;;;;5.13;3.77;;;;;;;1.37;100.00;98295.56;5072487;28;20317;-81
2023/10/17 02:05:12;;;;;;;4.57;3.30;;;;;;;1.35;100.00;98291.31;5073495;28;20209;-81
2023/10/17 02:07:38;;;;;;;5.97;3.93;;;;;;;1.33;100.00;98282.66;5073327;28;20606;-81
2023/10/17 02:10:07;;;;;;;7.03;3.97;;;;;;;1.33;100.00;98282.66;5073048;28;20222;-80
2023/10/17 02:12:34;;;;;;;5.33;3.97;;;;;;;1.36;100.00;98279.97;5072220;28;20275;-80
2023/10/17 02:15:05;;;;;;;7.13;4.07;;;;;;;1.37;100.00;98277.34;5073023;28;20230;-81
2023/10/17 02:17:33;;;;;;;5.20;3.97;;;;;;;1.37;100.00;98281.69;5072714;28;20208;-80
2023/10/17 02:20:17;;;;;;;5.23;3.80;;;;;;;1.38;100.00;98280.78;5072745;28;20626;-80
2023/10/17 02:22:46;;;;;;;8.37;3.90;;;;;;;1.39;100.00;98282.47;5072210;28;20229;-80
2023/10/17 02:25:15;;;;;;;5.47;3.70;;;;;;;1.38;100.00;98286.84;5072910;28;20205;-81
2023/10/17 02:27:43;;;;;;;6.47;4.20;;;;;;;1.36;100.00;98285.19;5072683;28;20207;-81
2023/10/17 02:30:13;;;;;;;4.47;3.50;;;;;;;1.35;100.00;98276.50;5072843;28;20211;-81
2023/10/17 02:32:44;;;;;;;4.70;3.67;;;;;;;1.33;100.00;98275.72;5054436;28;20227;-81
2023/10/17 02:35:14;;;;;;;5.20;4.20;;;;;;;1.33;100.00;98285.28;5072860;28;20685;-81
2023/10/17 02:37:43;;;;;;;6.00;3.60;;;;;;;1.29;100.00;98292.31;5072631;28;20209;-81
2023/10/17 02:40:19;;;;;;;5.43;3.80;;;;;;;1.34;100.00;98294.78;5073180;28;20236;-81
2023/10/17 02:42:46;;;;;;;6.93;4.23;;;;;;;1.41;100.00;98299.75;5072436;28;20237;-81
2023/10/17 02:45:14;;;;;;;4.87;3.80;;;;;;;1.45;100.00;98304.00;5073304;28;20210;-81
2023/10/17 02:47:43;;;;;;;6.63;4.60;;;;;;;1.49;100.00;98295.19;5084019;28;20250;-80
2023/10/17 02:50:22;;;;;;;6.53;4.67;;;;;;;1.57;100.00;98303.63;5086319;28;20209;-80
2023/10/17 02:52:51;;;;;;;5.33;4.13;;;;;;;1.63;100.00;98303.44;5075146;28;20609;-81
2023/10/17 02:55:23;;;;;;;6.23;3.90;;;;;;;1.60;100.00;98305.28;5072769;28;20738;-81
2023/10/17 02:57:50;;;;;;;7.57;4.33;;;;;;;1.66;100.00;98308.53;5073109;28;20223;-80
2023/10/17 03:00:22;;;;;;;5.30;4.43;;;;;;;1.70;100.00;98304.94;5072782;28;20215;-80
2023/10/17 03:02:50;;;;;;;5.40;4.20;;;;;;;1.72;100.00;98305.72;5072250;28;20329;-80
2023/10/17 03:05:18;;;;;;;6.53;4.07;;;;;;;1.73;100.00;98304.81;5072732;28;20207;-80
2023/10/17 03:07:49;;;;;;;6.47;4.37;;;;;;;1.74;100.00;98306.53;5072846;28;20213;-80
2023/10/17 03:10:23;;;;;;;5.63;4.33;;;;;;;1.72;100.00;98307.50;5072677;28;20232;-80
2023/10/17 03:12:55;;;;;;;5.57;4.13;;;;;;;1.73;100.00;98302.22;5071909;28;20231;-80
2023/10/17 03:15:29;;;;;;;7.60;4.63;;;;;;;1.78;100.00;98292.50;5072388;28;20234;-80
2023/10/17 03:17:54;;;;;;;6.37;4.63;;;;;;;1.79;100.00;98288.16;5072854;28;20215;-80
2023/10/17 03:20:36;;;;;;;8.10;4.47;;;;;;;1.81;100.00;98292.41;5073262;28;20222;-80
2023/10/17 03:23:04;;;;;;;5.93;4.60;;;;;;;1.81;100.00;98286.34;5073411;28;20208;-80
2023/10/17 03:25:37;;;;;;;4.70;3.80;;;;;;;1.80;100.00;98280.31;5073836;28;20672;-80
2023/10/17 03:28:08;;;;;;;6.67;3.93;;;;;;;1.82;100.00;98286.31;5073326;28;20620;-80
2023/10/17 03:30:36;;;;;;;5.90;3.77;;;;;;;1.83;100.00;98285.41;5075590;28;20215;-83
2023/10/17 03:33:08;;;;;;;5.13;4.00;;;;;;;1.82;100.00;98294.13;5077303;28;20227;-80
2023/10/17 03:35:45;;;;;;;6.63;4.13;;;;;;;1.81;100.00;98292.41;5078176;28;20253;-82
2023/10/17 03:38:14;;;;;;;4.90;3.70;;;;;;;1.83;100.00;98290.59;5077897;28;20219;-80
2023/10/17 03:40:41;;;;;;;6.33;3.80;;;;;;;1.86;100.00;98285.31;5077793;28;20213;-80
2023/10/17 03:43:12;;;;;;;5.37;4.00;;;;;;;1.92;100.00;98285.13;5076561;28;20283;-80
2023/10/17 03:45:52;;;;;;;4.93;3.90;;;;;;;1.93;100.00;98285.94;5076728;28;20215;-81
2023/10/17 03:48:20;;;;;;;5.50;3.80;;;;;;;1.88;100.00;98283.50;5076025;28;20642;-80
2023/10/17 03:50:58;;;;;;;5.77;3.60;;;;;;;1.88;100.00;98288.72;5076587;28;20235;-80
2023/10/17 03:53:28;;;;;;;5.50;3.87;;;;;;;1.91;100.00;98291.19;5075707;28;20234;-80
2023/10/17 03:55:55;;;;;;;5.47;3.53;;;;;;;1.94;100.00;98288.50;5076095;28;20216;-80
2023/10/17 03:58:43;;;;;;;5.27;3.70;;;;;;;1.95;100.00;98285.00;5076241;28;20222;-80
2023/10/17 04:01:12;;;;;;;5.40;3.50;;;;;;;1.95;100.00;98274.56;5075971;28;20242;-80
2023/10/17 04:03:39;;;;;;;6.00;4.10;;;;;;;1.97;100.00;98288.41;5075536;28;20206;-81
2023/10/17 04:06:17;;;;;;;4.70;3.93;;;;;;;1.96;100.00;98285.88;5075696;28;20209;-81
2023/10/17 04:08:49;;;;;;;4.47;3.97;;;;;;;1.96;100.00;98276.28;5077017;28;20561;-81
2023/10/17 04:11:17;;;;;;;4.33;3.43;;;;;;;1.96;100.00;98286.69;5076222;28;20292;-80
2023/10/17 04:13:45;;;;;;;4.47;3.63;;;;;;;1.91;100.00;98272.97;5076222;28;20237;-80
2023/10/17 04:16:21;;;;;;;4.17;3.07;;;;;;;1.89;100.00;98273.94;5076799;28;20219;-80
2023/10/17 04:18:49;;;;;;;4.23;3.30;;;;;;;1.93;100.00;98265.97;5077877;28;20564;-79
2023/10/17 04:21:26;;;;;;;4.63;3.40;;;;;;;1.94;100.00;98275.47;5077081;28;20226;-81
2023/10/17 04:23:53;;;;;;;6.13;3.93;;;;;;;2.02;100.00;98273.47;5076251;28;20206;-82
2023/10/17 04:26:20;;;;;;;6.33;3.43;;;;;;;2.18;100.00;98269.44;5075145;28;20237;-81
2023/10/17 04:28:49;;;;;;;4.33;3.30;;;;;;;2.22;100.00;98268.44;5074925;28;20654;-81
2023/10/17 04:31:25;;;;;;;4.63;3.73;;;;;;;2.27;100.00;98269.13;5074677;28;20269;-81
2023/10/17 04:33:56;;;;;;;4.33;3.17;;;;;;;2.25;100.00;98262.25;5074504;28;20231;-81
2023/10/17 04:36:22;;;;;;;4.87;3.53;;;;;;;2.27;100.00;98255.25;5074721;28;20694;-80
2023/10/17 04:39:10;;;;;;;4.33;2.83;;;;;;;2.23;100.00;98253.66;5074755;28;20566;-80
2023/10/17 04:41:44;;;;;;;3.57;3.07;;;;;;;2.20;100.00;98244.16;5073739;28;20234;-80
2023/10/17 04:44:15;;;;;;;5.13;3.70;;;;;;;2.17;100.00;98239.06;5074281;28;20234;-80
2023/10/17 04:46:50;;;;;;;4.67;3.60;;;;;;;2.16;100.00;98236.50;5074848;28;20207;-81
2023/10/17 04:49:18;;;;;;;4.07;3.10;;;;;;;2.17;100.00;98249.50;5074923;28;20207;-81
2023/10/17 04:51:45;;;;;;;4.57;2.97;;;;;;;2.18;100.00;98240.78;5074034;28;20251;-81
2023/10/17 04:54:22;;;;;;;4.83;3.23;;;;;;;2.18;100.00;98235.56;5074836;28;20223;-81
2023/10/17 04:56:59;;;;;;;5.73;4.00;;;;;;;2.21;100.00;98230.22;5075073;28;20217;-81
2023/10/17 04:59:41;;;;;;;5.40;3.53;;;;;;;2.20;100.00;98228.53;5074872;28;20199;-81
2023/10/17 05:07:53;;;;;;;5.00;3.57;;;;;;;2.37;100.00;98226.19;5044741;28;20242;-81
2023/10/17 06:18:57;;;;;;;5.90;3.40;;;;;;;2.92;100.00;98262.41;5074177;28;20592;-82
2023/10/17 06:21:35;;;;;;;4.20;3.30;;;;;;;2.97;100.00;98255.28;5073563;28;20608;-81
2023/10/17 06:24:33;;;;;;;5.60;4.20;;;;;;;3.04;100.00;98267.19;5072489;28;20674;-82
2023/10/17 06:26:59;;;;;;;4.00;3.47;;;;;;;3.10;100.00;98259.13;5072682;28;20207;-83
2023/10/17 06:32:16;;;;;;;4.50;3.30;;;;;;;3.23;100.00;98277.78;5072355;28;20237;-82
2023/10/17 06:34:44;;;;;;;4.30;3.00;;;;;;;3.27;100.00;98275.03;5072283;28;20231;-83
2023/10/17 06:37:19;;;;;;;5.43;3.50;;;;;;;3.31;100.00;98276.59;5054511;28;20205;-81
2023/10/17 06:39:47;;;;;;;5.30;3.40;;;;;;;3.32;100.00;98277.44;5072295;28;20210;-82
2023/10/17 06:42:18;;;;;;;4.67;3.50;;;;;;;3.34;100.00;98276.47;5071903;28;20235;-82
2023/10/17 06:45:01;;;;;;;5.50;3.53;;;;;;;3.44;100.00;98270.00;5073128;28;20210;-81
2023/10/17 06:47:30;;;;;;;4.83;3.53;;;;;;;3.50;100.00;98269.75;5072939;28;20311;-81
2023/10/17 06:52:54;;;;;;;6.03;3.83;;;;;;;3.68;100.00;98276.84;5072161;28;20280;-83
2023/10/17 06:55:28;;;;;;;5.70;3.90;;;;;;;3.77;100.00;98279.13;5072210;28;20230;-83
2023/10/17 06:57:57;;;;;;;5.23;3.43;;;;;;;3.85;100.00;98276.19;5072703;28;20680;-81
2023/10/17 07:00:27;;;;;;;6.37;4.03;;;;;;;3.94;100.00;98268.84;5072301;28;20237;-82
2023/10/17 07:02:56;;;;;;;6.10;4.20;;;;;;;3.97;100.00;98268.69;5071964;28;20218;-83
2023/10/17 07:05:24;;;;;;;5.37;4.00;;;;;;;4.07;100.00;98269.16;5074935;28;20202;-81
2023/10/17 07:07:52;;;;;;;6.17;3.60;;;;;;;4.15;100.00;98260.09;5076632;28;20575;-81
2023/10/17 07:10:24;;;;;;;4.87;3.63;;;;;;;4.22;100.00;98256.28;5076602;28;20207;-83
2023/10/17 07:13:32;;;;;;;6.50;3.50;;;;;;;4.32;100.00;98252.38;5075869;28;20708;-81
2023/10/17 07:16:04;;;;;;;4.83;3.80;;;;;;;4.40;100.00;98252.91;5076162;28;20211;-82
2023/10/17 07:18:44;;;;;;;6.07;3.67;;;;;;;4.47;100.00;98249.09;5079834;28;20192;-82
2023/10/17 07:21:15;;;;;;;5.33;3.93;;;;;;;4.59;100.00;98248.56;5078475;28;20231;-82
2023/10/17 07:23:42;;;;;;;5.20;3.90;;;;;;;4.64;100.00;98249.22;5079133;28;20256;-82
2023/10/17 07:26:11;;;;;;;6.20;3.80;;;;;;;4.70;100.00;98250.75;5079711;28;20226;-81
2023/10/17 07:28:42;;;;;;;4.83;3.80;;;;;;;4.78;100.00;98244.25;5079171;28;20306;-82
2023/10/17 07:31:11;;;;;;;4.77;3.63;;;;;;;4.81;100.00;98249.34;5079019;28;20249;-80
2023/10/17 07:33:38;;;;;;;5.20;3.63;;;;;;;4.86;100.00;98247.38;5079237;28;20247;-83
2023/10/17 07:36:06;;;;;;;6.07;4.00;;;;;;;4.96;100.00;98237.34;5079059;28;20230;-83
2023/10/17 07:38:32;;;;;;;6.57;4.40;;;;;;;5.11;100.00;98247.09;5079080;28;20667;-81
2023/10/17 07:41:09;;;;;;;6.73;4.67;;;;;;;5.22;100.00;98245.69;5079017;28;20737;-81
2023/10/17 07:43:35;;;;;;;6.33;4.30;;;;;;;5.29;100.00;98236.63;5078544;28;20219;-80
2023/10/17 07:46:07;;;;;;;6.40;4.30;;;;;;;5.36;100.00;98242.41;5079774;28;20216;-81
2023/10/17 07:48:34;;;;;;;6.55;4.65;;;;;;;5.45;100.00;98244.63;5080687;28;20446;-81
2023/10/17 07:51:04;;;;;;;5.30;3.90;;;;;;;5.55;100.00;98251.16;5079988;28;20227;-82
2023/10/17 07:53:32;;;;;;;5.93;4.47;;;;;;;5.61;100.00;98248.22;5080073;28;20211;-81
2023/10/17 07:56:04;;;;;;;7.23;4.70;;;;;;;5.68;100.00;98249.63;5081009;28;20231;-82
2023/10/17 07:58:41;;;;;;;4.90;3.87;;;;;;;5.73;100.00;98238.00;5077819;28;20298;-81
2023/10/17 08:01:14;;;;;;;8.77;4.60;;;;;;;5.80;100.00;98234.19;5074582;28;20600;-81
2023/10/17 08:03:45;;;;;;;5.90;4.20;;;;;;;5.81;100.00;98224.53;5057504;28;20209;-81
2023/10/17 08:06:12;;;;;;;4.83;3.80;;;;;;;5.91;100.00;98223.16;5034434;28;20216;-80
2023/10/17 08:08:43;;;;;;;6.93;4.63;;;;;;;6.01;100.00;98235.75;5036516;28;20200;-80
2023/10/17 08:11:26;;;;;;;5.67;4.60;;;;;;;6.10;100.00;98222.16;5034814;28;20607;-81
2023/10/17 08:13:53;;;;;;;6.30;4.43;;;;;;;6.24;100.00;98224.94;5034000;28;20363;-80
2023/10/17 08:16:24;;;;;;;7.13;4.60;;;;;;;6.33;100.00;98219.25;5034612;28;20209;-80
2023/10/17 08:18:55;;;;;;;5.70;4.57;;;;;;;6.48;100.00;98218.44;5035975;28;20213;-78
2023/10/17 08:24:02;;;;;;;8.37;4.37;;;;;;;6.74;100.00;98217.97;5030323;28;20237;-77
2023/10/17 08:26:29;;;;;;;5.80;4.40;;;;;;;6.82;100.00;98212.28;5033838;28;20217;-77
2023/10/17 08:28:57;;;;;;;6.87;4.83;;;;;;;6.85;100.00;98207.72;5033700;28;20206;-76
2023/10/17 08:31:24;;;;;;;8.00;5.23;;;;;;;6.91;100.00;98215.25;5033252;28;20238;-75
2023/10/17 08:34:08;;;;;;;6.53;4.47;;;;;;;7.00;100.00;98214.78;5032956;28;20279;-76
2023/10/17 08:36:48;;;;;;;8.00;5.13;;;;;;;7.13;100.00;98210.56;5033367;28;20212;-76
2023/10/17 08:39:51;;;;;;;6.80;4.60;;;;;;;7.31;100.00;98217.44;5033642;28;20208;-76
2023/10/17 08:42:30;;;;;;;6.83;5.20;;;;;;;7.44;100.00;98213.22;5033748;28;20316;-79
2023/10/17 08:44:58;;;;;;;7.13;4.87;;;;;;;7.57;100.00;98203.69;5035125;28;20564;-80
2023/10/17 08:47:30;;;;;;;7.53;4.67;;;;;;;7.63;100.00;98198.09;5034952;28;20209;-82
2023/10/17 08:50:00;;;;;;;8.17;4.70;;;;;;;7.74;100.00;98208.88;5035875;28;20213;-83
2023/10/17 08:52:27;;;;;;;7.03;5.10;;;;;;;7.79;100.00;98214.72;5034002;28;20242;-81
2023/10/17 08:54:54;;;;;;;7.03;5.10;;;;;;;7.93;100.00;98213.00;5033815;28;20228;-80
2023/10/17 08:57:22;;;;;;;7.30;4.97;;;;;;;8.05;100.00;98219.34;5033758;28;20742;-81
2023/10/17 09:00:22;;;;;;;8.20;6.03;;;;;;;8.14;100.00;98203.84;5033975;28;20670;-84
2023/10/17 09:03:00;;;;;;;8.10;5.37;;;;;;;8.27;100.00;98189.06;5034227;28;20599;-84
2023/10/17 09:05:26;;;;;;;8.87;6.07;;;;;;;8.34;100.00;98193.00;5034556;28;20214;-82
2023/10/17 09:07:55;;;;;;;8.50;5.47;;;;;;;8.40;99.70;98191.81;5034534;28;20306;-84
2023/10/17 09:10:28;;;;;;;8.23;6.00;;;;;;;8.50;99.84;98187.72;5034945;28;20218;-84
2023/10/17 09:16:10;;;;;;;10.20;6.90;;;;;;;8.71;98.51;98196.94;5032945;28;20287;-79
2023/10/17 09:18:42;;;;;;;9.23;5.97;;;;;;;8.79;98.33;98195.53;5035363;28;20205;-83
2023/10/17 09:21:09;;;;;;;9.57;6.27;;;;;;;8.89;97.15;98193.19;5035812;28;20722;-83
2023/10/17 09:23:38;;;;;;;10.00;6.60;;;;;;;8.93;95.19;98186.78;5035604;28;20599;-83
2023/10/17 09:26:10;;;;;;;10.67;6.37;;;;;;;8.98;93.78;98180.28;5035444;28;20208;-81
2023/10/17 09:28:37;;;;;;;9.33;6.63;;;;;;;9.04;93.48;98169.34;5016392;28;20219;-85
2023/10/17 09:31:07;;;;;;;10.87;7.30;;;;;;;9.09;93.08;98171.69;5035131;28;20234;-84
2023/10/17 09:33:36;;;;;;;11.27;6.93;;;;;;;9.20;93.93;98169.25;5034322;28;20231;-84
2023/10/17 09:36:05;;;;;;;11.77;7.57;;;;;;;9.32;93.84;98168.47;5034726;28;20238;-84
2023/10/17 09:38:32;;;;;;;11.27;7.37;;;;;;;9.36;93.76;98169.97;5035055;28;20212;-84
2023/10/17 09:41:00;;;;;;;9.93;7.17;;;;;;;9.39;93.92;98169.75;5034898;28;20224;-83
2023/10/17 09:43:26;;;;;;;11.03;7.03;;;;;;;9.44;91.82;98165.06;5033458;28;20215;-83
2023/10/17 09:45:55;;;;;;;9.37;6.73;;;;;;;9.48;91.39;98174.47;5034434;28;20216;-87
2023/10/17 09:48:27;;;;;;;10.60;6.67;;;;;;;9.58;92.24;98167.63;5033971;28;20210;-82
2023/10/17 09:50:57;;;;;;;11.80;6.83;;;;;;;9.65;91.78;98166.28;5034267;28;20247;-84
2023/10/17 09:53:31;;;;;;;9.30;6.53;;;;;;;9.71;91.00;98181.72;5034051;28;20269;-84
2023/10/17 09:56:00;;;;;;;8.67;6.50;;;;;;;9.78;90.57;98178.59;5033857;28;20295;-85
2023/10/17 09:58:31;;;;;;;11.30;7.03;;;;;;;9.86;90.12;98178.94;5033640;28;20238;-85
2023/10/17 10:01:05;;;;;;;8.73;7.00;;;;;;;9.94;89.49;98170.50;5034692;28;20704;-84
2023/10/17 10:03:33;;;;;;;10.30;6.77;;;;;;;9.99;89.20;98177.22;5034814;28;20861;-84
2023/10/17 10:06:21;;;;;;;9.33;6.47;;;;;;;10.01;88.01;98169.16;5034926;28;20216;-83
2023/10/17 10:08:54;;;;;;;9.97;7.33;;;;;;;10.10;87.42;98163.31;5034957;28;20267;-85
2023/10/17 10:11:21;;;;;;;9.70;7.00;;;;;;;10.18;86.44;98171.56;5034237;28;20233;-84
2023/10/17 10:14:04;;;;;;;10.13;7.27;;;;;;;10.26;86.41;98177.16;5034687;28;20208;-83
2023/10/17 10:16:49;;;;;;;11.47;6.90;;;;;;;10.26;86.54;98175.38;5033617;28;20226;-85
2023/10/17 10:19:16;;;;;;;9.63;6.70;;;;;;;10.31;86.24;98169.78;5034908;28;20195;-84
2023/10/17 10:21:57;;;;;;;9.30;6.77;;;;;;;10.39;85.59;98170.13;5034285;28;20294;-83
2023/10/17 10:24:28;;;;;;;9.90;7.50;;;;;;;10.56;83.37;98167.16;5030295;28;20212;-83
2023/10/17 10:27:23;;;;;;;10.63;7.03;;;;;;;10.56;83.83;98161.88;5031643;28;20210;-83
2023/10/17 10:29:52;;;;;;;10.17;6.97;;;;;;;10.63;84.91;98163.16;5031782;28;20217;-83
2023/10/17 10:32:30;;;;;;;10.90;6.87;;;;;;;10.74;84.42;98168.53;5029823;28;20290;-83
2023/10/17 10:34:56;;;;;;;10.47;7.10;;;;;;;10.73;83.55;98164.22;5031853;28;20248;-84
2023/10/17 10:37:23;;;;;;;10.83;7.43;;;;;;;10.79;83.14;98163.78;5031623;28;20781;-78
2023/10/17 10:40:16;;;;;;;11.17;7.80;;;;;;;10.85;82.01;98158.06;5035754;28;20215;-78
2023/10/17 10:42:44;;;;;;;9.90;7.40;;;;;;;10.90;81.64;98146.22;5036590;28;20271;-79
2023/10/17 10:45:24;;;;;;;9.40;7.10;;;;;;;10.94;80.33;98137.13;5037306;28;20657;-79
2023/10/17 10:47:57;;;;;;;10.67;6.97;;;;;;;10.97;81.00;98141.34;5036578;28;20882;-78
2023/10/17 10:50:29;;;;;;;10.03;7.07;;;;;;;11.05;81.49;98146.94;5037600;28;20599;-80
2023/10/17 10:52:56;;;;;;;10.13;6.67;;;;;;;11.08;80.56;98136.16;5036780;28;20216;-80
2023/10/17 10:55:26;;;;;;;9.90;7.40;;;;;;;11.08;80.14;98136.97;5035876;28;20622;-78
2023/10/17 10:57:53;;;;;;;11.43;7.40;;;;;;;11.11;79.94;98138.56;5036945;28;20204;-78
2023/10/17 11:00:19;;;;;;;10.17;7.27;;;;;;;11.19;80.77;98147.66;5037188;28;20673;-80
2023/10/17 11:02:46;;;;;;;9.20;6.67;;;;;;;11.21;79.39;98136.97;5035180;28;20236;-78
2023/10/17 11:05:14;;;;;;;10.30;6.50;;;;;;;11.28;79.28;98135.56;5036732;28;20737;-78
2023/10/17 11:07:42;;;;;;;9.07;6.87;;;;;;;11.30;79.83;98138.94;5037329;28;20554;-80
2023/10/17 11:10:11;;;;;;;9.23;6.77;;;;;;;11.35;79.98;98131.53;5035693;28;20216;-78
2023/10/17 11:12:39;;;;;;;10.83;7.40;;;;;;;11.37;80.10;98138.41;5036555;28;20234;-80
2023/10/17 11:15:10;;;;;;;9.30;6.70;;;;;;;11.43;79.73;98142.41;5037005;28;20236;-78
2023/10/17 11:17:38;;;;;;;10.63;7.20;;;;;;;11.50;79.30;98128.59;5036485;28;20644;-78
2023/10/17 11:20:14;;;;;;;8.27;6.33;;;;;;;11.59;79.69;98135.06;5038507;28;20543;-80
2023/10/17 11:22:42;;;;;;;9.97;7.10;;;;;;;11.67;77.21;98127.44;5036446;28;20243;-80
2023/10/17 11:25:13;;;;;;;11.90;7.70;;;;;;;11.65;76.12;98118.72;5038262;28;20235;-80
2023/10/17 11:27:53;;;;;;;8.20;6.67;;;;;;;11.70;75.42;98120.09;5038351;28;20255;-78
2023/10/17 11:30:20;;;;;;;10.53;7.13;;;;;;;11.68;76.98;98119.34;5038443;28;20211;-81
2023/10/17 11:32:48;;;;;;;9.83;7.20;;;;;;;11.73;77.57;98117.22;5038034;28;20282;-80
2023/10/17 11:35:29;;;;;;;11.17;6.83;;;;;;;11.78;78.40;98114.22;5038694;28;20235;-80
2023/10/17 11:37:56;;;;;;;10.60;8.00;;;;;;;11.85;77.72;98121.59;5038386;28;20276;-80
2023/10/17 11:40:30;;;;;;;10.00;6.40;;;;;;;11.82;75.94;98105.97;5037863;28;20633;-79
2023/10/17 11:42:59;;;;;;;10.38;7.93;;;;;;;11.87;76.58;98093.19;5037287;28;20440;-80
2023/10/17 11:45:33;;;;;;;11.13;7.87;;;;;;;11.86;77.53;98102.09;5038581;28;20235;-80
2023/10/17 11:48:06;;;;;;;9.95;8.05;;;;;;;11.92;77.68;98096.34;5038630;28;20520;-79
2023/10/17 11:50:34;;;;;;;10.83;7.47;;;;;;;12.02;77.10;98092.06;5036366;28;20222;-79
2023/10/17 11:53:10;;;;;;;11.07;7.40;;;;;;;11.96;75.99;98087.22;5035145;28;20204;-81
2023/10/17 11:55:45;;;;;;;11.10;7.57;;;;;;;12.04;77.34;98091.94;5035852;28;20251;-79
2023/10/17 11:58:21;;;;;;;10.47;6.67;;;;;;;12.00;76.92;98094.00;5035482;28;20224;-79
2023/10/17 12:00:50;;;;;;;9.73;6.47;;;;;;;12.01;77.20;98089.50;5035498;28;20241;-79
2023/10/17 12:03:19;;;;;;;9.73;7.57;;;;;;;12.05;75.34;98069.78;5034858;28;20209;-78
2023/10/17 12:05:46;;;;;;;9.98;7.88;;;;;;;12.08;76.75;98077.50;5034395;28;20429;-78
2023/10/17 12:08:15;;;;;;;10.10;7.33;;;;;;;12.17;77.16;98082.09;5036009;28;20231;-78
2023/10/17 12:10:43;;;;;;;11.20;7.37;;;;;;;12.11;75.27;98072.78;5035470;28;20567;-78
2023/10/17 12:13:13;;;;;;;10.57;6.80;;;;;;;12.17;76.24;98080.28;5034210;28;20592;-78
2023/10/17 12:15:41;;;;;;;8.70;6.27;;;;;;;12.24;76.76;98075.38;5034592;28;20696;-80
2023/10/17 12:18:07;;;;;;;10.17;6.67;;;;;;;12.31;77.38;98076.59;5034714;28;20206;-78
2023/10/17 12:20:40;;;;;;;9.17;6.80;;;;;;;12.41;77.07;98074.91;5033584;28;20220;-78
2023/10/17 12:23:08;;;;;;;9.40;7.50;;;;;;;12.53;77.44;98071.31;5048433;28;20209;-77
2023/10/17 12:25:36;;;;;;;10.13;7.70;;;;;;;12.64;77.06;98063.34;5054074;28;20211;-79
2023/10/17 12:28:03;;;;;;;8.13;6.90;;;;;;;12.79;76.71;98056.84;5053764;28;20785;-78
2023/10/17 12:30:35;;;;;;;9.83;7.37;;;;;;;12.92;75.56;98049.59;5053846;28;20222;-80
2023/10/17 12:33:04;;;;;;;9.80;7.13;;;;;;;13.04;72.62;98024.78;5050508;28;20295;-80
2023/10/17 12:35:31;;;;;;;11.27;7.87;;;;;;;13.10;72.97;98026.94;5050956;28;20720;-80
2023/10/17 12:37:59;;;;;;;10.60;7.23;;;;;;;13.20;73.16;98039.31;5034939;28;20215;-80
2023/10/17 12:40:26;;;;;;;9.70;7.40;;;;;;;13.19;73.32;98028.81;5052994;28;20267;-80
2023/10/17 12:42:55;;;;;;;10.00;7.20;;;;;;;13.16;74.03;98029.94;5051811;28;20324;-80
2023/10/17 12:45:22;;;;;;;10.07;7.27;;;;;;;13.14;73.33;98023.91;5052761;28;20210;-78
2023/10/17 12:47:49;;;;;;;10.83;7.33;;;;;;;13.14;72.98;98023.06;5052946;28;20422;-79
2023/10/17 12:50:18;;;;;;;9.27;7.20;;;;;;;13.04;73.79;98032.72;5052045;28;20218;-79
2023/10/17 12:52:45;;;;;;;9.00;6.93;;;;;;;13.00;74.97;98028.63;5052492;28;20278;-80
2023/10/17 12:55:12;;;;;;;9.87;7.37;;;;;;;12.95;72.74;98020.19;5053179;28;20226;-78
2023/10/17 12:57:38;;;;;;;9.40;7.03;;;;;;;12.90;73.52;98032.97;5052344;28;20212;-80
2023/10/17 13:00:09;;;;;;;10.00;7.07;;;;;;;12.85;75.00;98035.16;5053580;28;20647;-80
2023/10/17 13:02:38;;;;;;;9.50;7.23;;;;;;;12.87;74.55;98031.41;5051847;28;20291;-79
2023/10/17 13:05:07;;;;;;;9.67;6.83;;;;;;;12.89;75.33;98028.66;5052565;28;20211;-79
2023/10/17 13:07:35;;;;;;;9.70;7.40;;;;;;;12.82;75.42;98025.63;5053636;28;20209;-80
2023/10/17 13:10:02;;;;;;;8.50;7.20;;;;;;;12.89;76.06;98042.72;5053031;28;20314;-80
2023/10/17 13:12:29;;;;;;;10.23;6.80;;;;;;;12.81;75.51;98037.19;5052941;28;20232;-83
2023/10/17 13:14:55;;;;;;;10.53;7.83;;;;;;;12.78;75.17;98031.31;5053386;28;20213;-80